Time;durP1;ratioP1;P1;durP2;ratioP2;P2;SDS_P1;SDS_P2;PMS_P1;PMS_P2;Temp;Humidity;BMP_temperature;BMP_pressure;BME280_temperature;BME280_humidity;BME280_pressure;Samples;Min_cycle;Max_cycle;Signal;HPM_P1;HPM_P2
2022/11/13 00:02:24;;;;;;;1999.90;999.90;;;;;;;5.54;100.00;102081.56;5043751;28;20099;-74
2022/11/13 00:05:08;;;;;;;1999.90;999.90;;;;;;;5.66;100.00;102080.31;5043660;28;20099;-74
2022/11/13 00:07:52;;;;;;;1999.90;999.90;;;;;;;5.73;100.00;102081.41;5045616;28;20056;-74
2022/11/13 00:10:36;;;;;;;1999.90;999.90;;;;;;;5.82;100.00;102075.66;5041323;28;20039;-74
2022/11/13 00:13:20;;;;;;;1999.90;999.90;;;;;;;5.91;100.00;102073.38;5041285;28;20064;-74
2022/11/13 00:16:06;;;;;;;1999.90;999.90;;;;;;;6.01;100.00;102067.66;5044805;28;20044;-74
2022/11/13 00:18:50;;;;;;;1999.90;999.90;;;;;;;6.05;100.00;102072.22;5045154;28;20055;-74
2022/11/13 00:21:34;;;;;;;1999.90;999.90;;;;;;;6.12;100.00;102079.44;5043734;28;20048;-74
2022/11/13 00:24:17;;;;;;;1999.90;999.90;;;;;;;6.17;100.00;102074.38;5040297;28;20048;-75
2022/11/13 00:27:01;;;;;;;1999.90;999.90;;;;;;;6.26;100.00;102068.56;5040036;28;20522;-74
2022/11/13 00:29:45;;;;;;;1999.90;999.90;;;;;;;6.34;100.00;102067.09;5042860;28;20099;-74
2022/11/13 00:32:29;;;;;;;1999.90;999.90;;;;;;;6.40;100.00;102071.69;5043360;28;20102;-74
2022/11/13 00:35:13;;;;;;;1999.90;999.90;;;;;;;6.44;100.00;102069.22;5041994;28;20124;-75
2022/11/13 00:37:57;;;;;;;1999.90;999.90;;;;;;;6.48;100.00;102057.13;5042407;28;20115;-74
2022/11/13 00:40:41;;;;;;;1999.90;999.90;;;;;;;6.46;100.00;102054.44;5040261;28;20045;-74
2022/11/13 00:43:25;;;;;;;1999.90;999.90;;;;;;;6.44;100.00;102049.97;5038907;28;20100;-74
2022/11/13 00:46:10;;;;;;;1999.90;999.90;;;;;;;6.39;100.00;102049.78;5042163;28;20539;-74
2022/11/13 00:48:54;;;;;;;1999.90;999.90;;;;;;;6.41;100.00;102047.25;5043976;28;20099;-74
2022/11/13 00:51:37;;;;;;;1999.90;999.90;;;;;;;6.41;100.00;102048.13;5039107;28;20459;-74
2022/11/13 00:54:21;;;;;;;1999.90;999.90;;;;;;;6.46;100.00;102048.28;5040659;28;20056;-75
2022/11/13 00:57:06;;;;;;;1999.90;999.90;;;;;;;6.44;100.00;102040.34;5037637;28;20518;-75
2022/11/13 00:59:49;;;;;;;1999.90;999.90;;;;;;;6.37;100.00;102038.38;5045470;28;20052;-74
2022/11/13 01:02:33;;;;;;;1999.90;999.90;;;;;;;6.40;100.00;102048.09;5045070;28;20090;-74
2022/11/13 01:05:17;;;;;;;1999.90;999.90;;;;;;;6.38;100.00;102041.91;5040803;28;20102;-74
2022/11/13 01:08:02;;;;;;;1999.90;999.90;;;;;;;6.39;100.00;102041.94;5042816;28;20435;-74
2022/11/13 01:10:48;;;;;;;1999.90;999.90;;;;;;;6.46;100.00;102040.44;5038300;28;20041;-74
2022/11/13 01:13:32;;;;;;;1999.90;999.90;;;;;;;6.50;100.00;102040.59;5041331;28;20048;-75
2022/11/13 01:16:19;;;;;;;1999.90;999.90;;;;;;;6.53;100.00;102035.44;5041844;28;20049;-75
2022/11/13 01:19:03;;;;;;;1999.90;999.90;;;;;;;6.53;100.00;102037.19;5043979;28;20098;-75
2022/11/13 01:21:46;;;;;;;1999.90;999.90;;;;;;;6.54;100.00;102029.34;5043590;28;20048;-74
2022/11/13 01:24:30;;;;;;;1999.90;999.90;;;;;;;6.63;100.00;102033.13;5041158;28;20523;-74
2022/11/13 01:27:14;;;;;;;1999.90;999.90;;;;;;;6.61;100.00;102022.59;5039047;28;20048;-75
2022/11/13 01:29:58;;;;;;;1999.90;999.90;;;;;;;6.66;100.00;102022.75;5044150;28;20123;-74
2022/11/13 01:32:42;;;;;;;1999.90;999.90;;;;;;;6.59;100.00;102017.28;5044195;28;20051;-75
2022/11/13 01:35:26;;;;;;;1999.90;999.90;;;;;;;6.61;100.00;102013.84;5040065;28;20044;-75
2022/11/13 01:38:10;;;;;;;1999.90;999.90;;;;;;;6.69;100.00;102015.00;5042473;28;20059;-75
2022/11/13 01:40:54;;;;;;;1999.90;999.90;;;;;;;6.67;100.00;102012.31;5039256;28;20053;-75
2022/11/13 01:43:39;;;;;;;1999.90;999.90;;;;;;;6.70;100.00;102004.53;5038056;28;20053;-74
2022/11/13 01:46:30;;;;;;;1999.90;999.90;;;;;;;6.70;100.00;102011.50;5041407;28;20048;-74
2022/11/13 01:49:24;;;;;;;1999.90;999.90;;;;;;;6.71;100.00;102008.06;5041624;28;20087;-74
2022/11/13 01:52:18;;;;;;;1999.90;999.90;;;;;;;6.76;100.00;102009.13;5038377;28;20040;-74
2022/11/13 01:55:07;;;;;;;1999.90;999.90;;;;;;;6.71;100.00;102003.72;5040911;28;20051;-75
2022/11/13 01:57:51;;;;;;;1999.90;999.90;;;;;;;6.73;100.00;102007.28;5039027;28;20040;-74
2022/11/13 02:00:35;;;;;;;1999.90;999.90;;;;;;;6.73;100.00;102020.41;5048936;22;20064;-74
2022/11/13 02:03:19;;;;;;;1999.90;999.90;;;;;;;6.71;100.00;102014.19;5041126;28;20064;-75
2022/11/13 02:06:03;;;;;;;1999.90;999.90;;;;;;;6.76;100.00;102016.97;5040713;28;20422;-74
2022/11/13 02:08:49;;;;;;;1999.90;999.90;;;;;;;6.80;100.00;102014.47;5025908;28;20121;-74
2022/11/13 02:11:33;;;;;;;1999.90;999.90;;;;;;;6.80;100.00;102009.25;5056472;28;20411;-74
2022/11/13 02:14:19;;;;;;;1999.90;999.90;;;;;;;6.83;100.00;102005.81;5057423;28;20079;-75
2022/11/13 02:17:05;;;;;;;1999.90;999.90;;;;;;;6.85;100.00;102003.25;5058141;28;20098;-75
2022/11/13 02:19:54;;;;;;;1999.90;999.90;;;;;;;6.83;100.00;101999.69;5060235;28;20178;-75
2022/11/13 02:23:07;;;;;;;1999.90;999.90;;;;;;;6.73;100.00;101991.53;5059959;28;20183;-75
2022/11/13 02:25:53;;;;;;;1999.90;999.90;;;;;;;6.68;100.00;101989.56;5062236;28;20089;-75
2022/11/13 02:28:37;;;;;;;1999.90;999.90;;;;;;;6.57;100.00;101992.72;5061629;28;20039;-75
2022/11/13 02:31:21;;;;;;;1999.90;999.90;;;;;;;6.54;100.00;101989.13;5061024;28;20043;-74
2022/11/13 02:34:04;;;;;;;1999.90;999.90;;;;;;;6.44;100.00;101992.28;5058542;28;20106;-75
2022/11/13 02:36:49;;;;;;;1999.90;999.90;;;;;;;6.44;100.00;101994.91;5064003;28;20040;-75
2022/11/13 02:39:33;;;;;;;1999.90;999.90;;;;;;;6.47;100.00;101989.75;5059901;28;20067;-74
2022/11/13 02:42:17;;;;;;;1999.90;999.90;;;;;;;6.45;100.00;101997.59;5061595;28;20476;-74
2022/11/13 02:45:02;;;;;;;1999.90;999.90;;;;;;;6.49;100.00;101985.44;5060276;28;20055;-74
2022/11/13 02:47:46;;;;;;;1999.90;999.90;;;;;;;6.53;100.00;101980.38;5058807;28;20056;-74
2022/11/13 02:50:31;;;;;;;1999.90;999.90;;;;;;;6.56;100.00;101976.97;5053729;28;20059;-75
2022/11/13 02:53:15;;;;;;;1999.90;999.90;;;;;;;6.58;100.00;101983.16;5056498;28;20052;-75
2022/11/13 02:55:59;;;;;;;1999.90;999.90;;;;;;;6.64;100.00;101985.09;5062020;28;20102;-75
2022/11/13 02:58:43;;;;;;;1999.90;999.90;;;;;;;6.69;100.00;101980.88;5027417;28;20537;-75
2022/11/13 03:01:28;;;;;;;1999.90;999.90;;;;;;;6.73;100.00;101974.88;5059618;28;20057;-75
2022/11/13 03:04:11;;;;;;;1999.90;999.90;;;;;;;6.75;100.00;101970.56;5058137;28;20124;-74
2022/11/13 03:06:55;;;;;;;1999.90;999.90;;;;;;;6.74;100.00;101969.69;5062590;28;20043;-74
2022/11/13 03:09:40;;;;;;;1999.90;999.90;;;;;;;6.74;100.00;101960.94;5062960;28;20059;-74
2022/11/13 03:12:24;;;;;;;1999.90;999.90;;;;;;;6.71;100.00;101953.84;5062501;28;20465;-75
2022/11/13 03:15:09;;;;;;;1999.90;999.90;;;;;;;6.73;100.00;101956.50;5060321;28;20117;-74
2022/11/13 03:17:53;;;;;;;1999.90;999.90;;;;;;;6.73;100.00;101946.94;5059087;28;20056;-75
2022/11/13 03:20:40;;;;;;;1999.90;999.90;;;;;;;6.73;100.00;101943.38;5045050;28;20072;-74
2022/11/13 03:23:23;;;;;;;1999.90;999.90;;;;;;;6.73;100.00;101946.00;5056620;28;20098;-74
2022/11/13 03:26:10;;;;;;;1999.90;999.90;;;;;;;6.74;100.00;101943.44;5060705;28;20132;-74
2022/11/13 03:28:54;;;;;;;1999.90;999.90;;;;;;;6.72;100.00;101942.50;5062812;28;20492;-74
2022/11/13 03:31:37;;;;;;;1999.90;999.90;;;;;;;6.69;100.00;101939.78;5060331;28;20101;-75
2022/11/13 03:34:21;;;;;;;1999.90;999.90;;;;;;;6.70;100.00;101930.19;5057973;28;20052;-74
2022/11/13 03:37:05;;;;;;;1999.90;999.90;;;;;;;6.72;100.00;101933.75;5062679;28;20190;-75
2022/11/13 03:39:49;;;;;;;1999.90;999.90;;;;;;;6.73;100.00;101938.13;5055779;28;20167;-75
2022/11/13 03:42:33;;;;;;;1999.90;999.90;;;;;;;6.67;100.00;101930.09;5058204;28;20044;-74
2022/11/13 03:45:17;;;;;;;1999.90;999.90;;;;;;;6.71;100.00;101932.88;5061445;28;20114;-75
2022/11/13 03:48:01;;;;;;;1999.90;999.90;;;;;;;6.72;100.00;101933.75;5057247;28;20051;-74
2022/11/13 03:50:48;;;;;;;1999.90;999.90;;;;;;;6.72;100.00;101928.50;5057727;28;20171;-74
2022/11/13 03:53:32;;;;;;;1999.90;999.90;;;;;;;6.73;100.00;101930.28;5056871;28;20052;-75
2022/11/13 03:56:16;;;;;;;1999.90;999.90;;;;;;;6.76;100.00;101931.28;5056115;28;20433;-74
2022/11/13 03:59:00;;;;;;;1999.90;999.90;;;;;;;6.71;100.00;101921.47;5062371;28;20052;-74
2022/11/13 04:01:44;;;;;;;1999.90;999.90;;;;;;;6.61;100.00;101924.66;5060029;28;20054;-74
2022/11/13 04:04:28;;;;;;;1999.90;999.90;;;;;;;6.65;100.00;101923.88;5058631;28;20059;-75
2022/11/13 04:07:12;;;;;;;1999.90;999.90;;;;;;;6.64;100.00;101917.75;5063190;28;20081;-75
2022/11/13 04:09:56;;;;;;;1999.90;999.90;;;;;;;6.68;100.00;101926.59;5055818;28;20395;-75
2022/11/13 04:12:39;;;;;;;1999.90;999.90;;;;;;;6.68;100.00;101926.59;5059011;28;20458;-74
2022/11/13 04:15:23;;;;;;;1999.90;999.90;;;;;;;6.65;100.00;101929.13;5058787;28;20035;-74
2022/11/13 04:18:07;;;;;;;1999.90;999.90;;;;;;;6.68;100.00;101922.28;5058898;28;20090;-75
2022/11/13 04:20:51;;;;;;;1999.90;999.90;;;;;;;6.69;100.00;101918.78;5057185;28;20064;-74
2022/11/13 04:23:35;;;;;;;1999.90;999.90;;;;;;;6.71;100.00;101922.38;5055627;28;20043;-75
2022/11/13 04:26:19;;;;;;;1999.90;999.90;;;;;;;6.70;100.00;101923.19;5059841;28;20128;-75
2022/11/13 04:29:03;;;;;;;1999.90;999.90;;;;;;;6.74;100.00;101927.72;5059775;28;20098;-75
2022/11/13 04:31:47;;;;;;;1999.90;999.90;;;;;;;6.73;100.00;101918.06;5056535;28;20060;-74
2022/11/13 04:34:31;;;;;;;1999.90;999.90;;;;;;;6.71;100.00;101919.75;5057626;28;20091;-75
2022/11/13 04:37:15;;;;;;;1999.90;999.90;;;;;;;6.69;100.00;101916.19;5060230;28;20529;-74
2022/11/13 04:39:59;;;;;;;1999.90;999.90;;;;;;;6.73;100.00;101914.53;5058198;28;20079;-74
2022/11/13 04:42:49;;;;;;;1999.90;999.90;;;;;;;6.76;100.00;101904.16;5059300;28;20047;-75
2022/11/13 04:45:34;;;;;;;1999.90;999.90;;;;;;;6.70;100.00;101906.56;5062162;28;20108;-74
2022/11/13 04:48:17;;;;;;;1999.90;999.90;;;;;;;6.68;100.00;101897.75;5063742;28;20170;-75
2022/11/13 04:51:01;;;;;;;1999.90;999.90;;;;;;;6.64;100.00;101903.75;5061765;28;20044;-74
2022/11/13 04:53:45;;;;;;;1999.90;999.90;;;;;;;6.67;100.00;101903.84;5058613;28;20040;-74
2022/11/13 04:56:29;;;;;;;1999.90;999.90;;;;;;;6.67;100.00;101896.88;5058543;28;20043;-74
2022/11/13 04:59:13;;;;;;;1999.90;999.90;;;;;;;6.67;100.00;101899.47;5060934;28;20076;-75
2022/11/13 05:01:57;;;;;;;1999.90;999.90;;;;;;;6.70;100.00;101894.31;5063242;28;20067;-74
2022/11/13 05:04:41;;;;;;;1999.90;999.90;;;;;;;6.70;100.00;101894.31;5061379;28;20051;-74
2022/11/13 05:07:25;;;;;;;1999.90;999.90;;;;;;;6.71;100.00;101890.88;5062143;28;20415;-75
2022/11/13 05:10:09;;;;;;;1999.90;999.90;;;;;;;6.75;100.00;101897.09;5058545;28;20043;-74
2022/11/13 05:12:56;;;;;;;1999.90;999.90;;;;;;;6.78;100.00;101890.22;5061817;28;20091;-74
2022/11/13 05:15:40;;;;;;;1999.90;999.90;;;;;;;6.73;100.00;101896.16;5061556;28;20097;-74
2022/11/13 05:18:25;;;;;;;1999.90;999.90;;;;;;;6.73;100.00;101888.28;5062833;28;20056;-74
2022/11/13 05:21:09;;;;;;;1999.90;999.90;;;;;;;6.71;100.00;101890.00;5061281;28;20106;-74
2022/11/13 05:23:53;;;;;;;1999.90;999.90;;;;;;;6.71;100.00;101895.25;5060079;28;20063;-74
2022/11/13 05:26:38;;;;;;;1999.90;999.90;;;;;;;6.63;100.00;101901.94;5057744;28;20469;-74
2022/11/13 05:29:23;;;;;;;1999.90;999.90;;;;;;;6.63;100.00;101900.25;5064871;28;20166;-74
2022/11/13 05:32:06;;;;;;;1999.90;999.90;;;;;;;6.62;100.00;101894.94;5064807;28;20094;-74
2022/11/13 05:34:50;;;;;;;1999.90;999.90;;;;;;;6.59;100.00;101895.72;5060816;28;20105;-74
2022/11/13 05:37:34;;;;;;;1999.90;999.90;;;;;;;6.55;100.00;101893.88;5061178;28;20052;-74
2022/11/13 05:40:18;;;;;;;1999.90;999.90;;;;;;;6.55;100.00;101894.75;5059024;28;20497;-74
2022/11/13 05:43:02;;;;;;;1999.90;999.90;;;;;;;6.52;100.00;101893.75;5057488;28;20052;-74
2022/11/13 05:45:46;;;;;;;1999.90;999.90;;;;;;;6.50;100.00;101891.09;5061063;28;20103;-74
2022/11/13 05:48:31;;;;;;;1999.90;999.90;;;;;;;6.36;100.00;101880.13;5062105;28;20052;-74
2022/11/13 05:51:18;;;;;;;1999.90;999.90;;;;;;;6.35;100.00;101880.09;5060940;28;20044;-74
2022/11/13 05:54:02;;;;;;;1999.90;999.90;;;;;;;6.34;100.00;101884.47;5060425;28;20090;-74
2022/11/13 05:56:46;;;;;;;1999.90;999.90;;;;;;;6.32;100.00;101886.13;5056328;28;20054;-74
2022/11/13 05:59:30;;;;;;;1999.90;999.90;;;;;;;6.35;100.00;101874.84;5057021;28;20133;-74
2022/11/13 06:02:13;;;;;;;1999.90;999.90;;;;;;;6.40;100.00;101873.28;5046007;28;20144;-75
2022/11/13 06:04:57;;;;;;;1999.90;999.90;;;;;;;6.41;100.00;101882.91;5060103;28;20047;-74
2022/11/13 06:07:41;;;;;;;1999.90;999.90;;;;;;;6.43;100.00;101876.00;5061489;28;20044;-74
2022/11/13 06:10:25;;;;;;;1999.90;999.90;;;;;;;6.41;100.00;101882.03;5058989;28;20036;-74
2022/11/13 06:13:09;;;;;;;1999.90;999.90;;;;;;;6.39;100.00;101881.06;5057149;28;20473;-74
2022/11/13 06:15:54;;;;;;;1999.90;999.90;;;;;;;6.32;100.00;101878.28;5060377;28;20545;-74
2022/11/13 06:18:38;;;;;;;1999.90;999.90;;;;;;;6.27;100.00;101878.97;5061969;28;20102;-74
2022/11/13 06:21:25;;;;;;;1999.90;999.90;;;;;;;6.32;100.00;101872.13;5060617;28;20040;-74
2022/11/13 06:24:11;;;;;;;1999.90;999.90;;;;;;;6.20;100.00;101874.34;5060105;28;20044;-74
2022/11/13 06:26:55;;;;;;;1999.90;999.90;;;;;;;6.15;100.00;101874.19;5058843;28;20080;-74
2022/11/13 06:29:39;;;;;;;1999.90;999.90;;;;;;;6.09;100.00;101871.38;5057562;28;20474;-74
2022/11/13 06:32:23;;;;;;;1999.90;999.90;;;;;;;6.16;100.00;101868.13;5060325;28;20518;-74
2022/11/13 06:35:07;;;;;;;1999.90;999.90;;;;;;;6.23;100.00;101874.44;5060724;28;20130;-74
2022/11/13 06:37:53;;;;;;;1999.90;999.90;;;;;;;6.29;100.00;101872.94;5062941;28;20217;-74
2022/11/13 06:40:38;;;;;;;1999.90;999.90;;;;;;;6.34;100.00;101873.97;5059474;28;20076;-74
2022/11/13 06:43:22;;;;;;;1999.90;999.90;;;;;;;6.26;100.00;101880.69;5058226;28;20091;-74
2022/11/13 06:46:10;;;;;;;1999.90;999.90;;;;;;;6.26;100.00;101878.09;5056287;28;20090;-74
2022/11/13 06:48:54;;;;;;;1999.90;999.90;;;;;;;6.23;100.00;101869.19;5056442;28;20047;-74
2022/11/13 06:51:39;;;;;;;1999.90;999.90;;;;;;;6.26;100.00;101871.91;5056331;28;20402;-74
2022/11/13 06:54:23;;;;;;;1999.90;999.90;;;;;;;6.21;100.00;101869.16;5060507;28;20048;-74
2022/11/13 06:57:07;;;;;;;1999.90;999.90;;;;;;;6.17;100.00;101871.63;5060281;28;20415;-74
2022/11/13 06:59:50;;;;;;;1999.90;999.90;;;;;;;6.15;100.00;101864.59;5057954;28;20137;-74
2022/11/13 07:02:34;;;;;;;1999.90;999.90;;;;;;;6.17;100.00;101858.53;5057096;28;20044;-74
2022/11/13 07:05:18;;;;;;;1999.90;999.90;;;;;;;6.23;100.00;101858.72;5059658;28;20036;-74
2022/11/13 07:08:02;;;;;;;1999.90;999.90;;;;;;;6.27;100.00;101865.84;5063807;28;20040;-75
2022/11/13 07:10:54;;;;;;;1999.90;999.90;;;;;;;6.38;100.00;101853.09;5060173;28;20044;-75
2022/11/13 07:13:38;;;;;;;1999.90;999.90;;;;;;;6.39;100.00;101863.59;5060554;28;20505;-74
2022/11/13 07:16:22;;;;;;;1999.90;999.90;;;;;;;6.39;100.00;101862.72;5058812;28;20094;-74
2022/11/13 07:19:06;;;;;;;1999.90;999.90;;;;;;;6.41;100.00;101863.66;5057518;28;20422;-74
2022/11/13 07:21:50;;;;;;;1999.90;999.90;;;;;;;6.43;100.00;101867.25;5056053;28;20052;-74
2022/11/13 07:24:34;;;;;;;1999.90;999.90;;;;;;;6.48;100.00;101868.28;5059769;28;20442;-75
2022/11/13 07:27:18;;;;;;;1999.90;999.90;;;;;;;6.45;100.00;101869.06;5061659;28;20048;-74
2022/11/13 07:30:02;;;;;;;1999.90;999.90;;;;;;;6.48;100.00;101871.78;5059220;28;20534;-74
2022/11/13 07:32:46;;;;;;;1999.90;999.90;;;;;;;6.50;100.00;101875.34;5058011;28;20048;-75
2022/11/13 07:35:30;;;;;;;1999.90;999.90;;;;;;;6.56;100.00;101879.91;5055855;28;20040;-75
2022/11/13 07:38:14;;;;;;;1999.90;999.90;;;;;;;6.56;100.00;101880.78;5059477;28;20197;-74
2022/11/13 07:40:58;;;;;;;1999.90;999.90;;;;;;;6.62;100.00;101871.31;5059642;28;20043;-74
2022/11/13 07:43:42;;;;;;;1999.90;999.90;;;;;;;6.66;100.00;101878.47;5055223;28;20048;-75
2022/11/13 07:46:26;;;;;;;1999.90;999.90;;;;;;;6.62;100.00;101873.94;5058059;28;20044;-74
2022/11/13 07:49:10;;;;;;;1999.90;999.90;;;;;;;6.66;100.00;101871.47;5057016;28;20075;-74
2022/11/13 07:51:54;;;;;;;1999.90;999.90;;;;;;;6.70;100.00;101868.09;5059098;28;20051;-75
2022/11/13 07:54:38;;;;;;;1999.90;999.90;;;;;;;6.79;100.00;101867.50;5059450;28;20064;-74
2022/11/13 07:57:22;;;;;;;1999.90;999.90;;;;;;;6.78;100.00;101866.59;5061529;28;20090;-74
2022/11/13 08:00:07;;;;;;;1999.90;999.90;;;;;;;6.84;100.00;101868.53;5058166;28;20048;-75
2022/11/13 08:02:51;;;;;;;1999.90;999.90;;;;;;;6.84;100.00;101876.41;5055592;28;20040;-74
2022/11/13 08:05:35;;;;;;;1999.90;999.90;;;;;;;6.87;100.00;101873.00;5058233;28;20055;-74
2022/11/13 08:08:18;;;;;;;1999.90;999.90;;;;;;;6.92;100.00;101874.91;5072008;22;20437;-74
2022/11/13 08:11:08;;;;;;;1999.90;999.90;;;;;;;7.01;100.00;101882.16;5021939;28;20044;-74
2022/11/13 08:13:52;;;;;;;1999.90;999.90;;;;;;;7.02;100.00;101874.34;5021822;28;20419;-75
2022/11/13 08:16:36;;;;;;;1999.90;999.90;;;;;;;7.10;100.00;101873.66;5023892;28;20041;-74
2022/11/13 08:19:19;;;;;;;1999.90;999.90;;;;;;;7.21;100.00;101878.38;5020375;28;20049;-74
2022/11/13 08:22:03;;;;;;;1999.90;999.90;;;;;;;7.22;100.00;101872.28;5023676;28;20158;-75
2022/11/13 08:24:47;;;;;;;1999.90;999.90;;;;;;;7.21;100.00;101872.25;5023009;28;20489;-74
2022/11/13 08:27:31;;;;;;;1999.90;999.90;;;;;;;7.13;100.00;101874.66;5026543;28;20095;-74
2022/11/13 08:30:16;;;;;;;1999.90;999.90;;;;;;;7.14;100.00;101880.78;5024841;28;20815;-74
2022/11/13 08:33:01;;;;;;;1999.90;999.90;;;;;;;7.21;100.00;101872.25;5024175;28;20052;-74
2022/11/13 08:35:56;;;;;;;1999.90;999.90;;;;;;;7.34;100.00;101858.63;5025879;28;20095;-74
2022/11/13 08:38:40;;;;;;;1999.90;999.90;;;;;;;7.30;100.00;101855.88;5028112;28;20185;-74
2022/11/13 08:41:24;;;;;;;1999.90;999.90;;;;;;;7.34;100.00;101853.38;5023491;28;20651;-74
2022/11/13 08:44:09;;;;;;;1999.90;999.90;;;;;;;7.35;100.00;101857.78;5022983;28;20564;-74
2022/11/13 08:46:53;;;;;;;1999.90;999.90;;;;;;;7.42;100.00;101857.09;5033400;28;20087;-75
2022/11/13 08:49:37;;;;;;;1999.90;999.90;;;;;;;7.54;100.00;101855.66;5025279;28;20045;-74
2022/11/13 08:52:21;;;;;;;1999.90;999.90;;;;;;;7.64;100.00;101848.06;5024603;28;20184;-74
2022/11/13 08:55:05;;;;;;;1999.90;999.90;;;;;;;7.66;100.00;101850.75;5027460;28;20073;-75
2022/11/13 08:57:50;;;;;;;1999.90;999.90;;;;;;;7.65;99.93;101846.31;5022668;28;20103;-75
2022/11/13 09:00:34;;;;;;;1999.90;999.90;;;;;;;7.72;99.59;101845.63;5022281;28;20147;-74
2022/11/13 09:03:17;;;;;;;1999.90;999.90;;;;;;;7.79;98.94;101844.97;5022668;28;20055;-75
2022/11/13 09:06:08;;;;;;;1999.90;999.90;;;;;;;7.85;97.84;101847.72;5025374;28;20103;-75
2022/11/13 09:08:52;;;;;;;1999.90;999.90;;;;;;;7.88;98.80;101847.81;5020519;28;20048;-75
2022/11/13 09:11:36;;;;;;;1999.90;999.90;;;;;;;7.94;97.76;101846.19;5023809;28;20128;-75
2022/11/13 09:14:20;;;;;;;1999.90;999.90;;;;;;;7.98;98.20;101848.06;5023128;28;20129;-74
2022/11/13 09:17:04;;;;;;;1999.90;999.90;;;;;;;8.10;96.92;101840.50;5025064;28;20047;-74
2022/11/13 09:19:48;;;;;;;1999.90;999.90;;;;;;;8.27;97.35;101840.88;5025316;28;20416;-75
2022/11/13 09:22:33;;;;;;;1999.90;999.90;;;;;;;8.30;96.75;101833.94;5024375;28;20527;-74
2022/11/13 09:25:17;;;;;;;1999.90;999.90;;;;;;;8.39;96.30;101829.78;5023597;28;20487;-75
2022/11/13 09:28:03;;;;;;;1999.90;999.90;;;;;;;8.51;96.69;101820.47;5023068;28;20052;-74
2022/11/13 09:30:47;;;;;;;1999.90;999.90;;;;;;;8.44;94.69;101825.56;5022371;28;20100;-74
2022/11/13 09:33:32;;;;;;;1999.90;999.90;;;;;;;8.37;93.99;101832.38;5021303;28;20084;-75
2022/11/13 09:36:16;;;;;;;1999.90;999.90;;;;;;;8.34;94.70;101830.56;5022835;28;20045;-75
2022/11/13 09:39:00;;;;;;;1999.90;999.90;;;;;;;8.37;94.35;101826.22;5020449;28;20095;-74
2022/11/13 09:41:48;;;;;;;1999.90;999.90;;;;;;;8.31;94.91;101826.97;5023575;28;20053;-75
2022/11/13 09:44:40;;;;;;;1999.90;999.90;;;;;;;8.19;94.81;101810.88;5023261;28;20041;-74
2022/11/13 09:47:29;;;;;;;1999.90;999.90;;;;;;;8.09;94.71;101823.81;5023712;28;20045;-74
2022/11/13 09:50:21;;;;;;;1999.90;999.90;;;;;;;8.07;95.99;101822.03;5023382;28;20040;-74
2022/11/13 09:53:05;;;;;;;1999.90;999.90;;;;;;;8.01;95.81;101819.22;5024036;28;20060;-75
2022/11/13 09:56:34;;;;;;;1999.90;999.90;;;;;;;8.03;96.06;101825.41;5025475;28;20045;-75
2022/11/13 09:59:26;;;;;;;1999.90;999.90;;;;;;;8.23;96.61;101813.63;5021210;28;20404;-75
2022/11/13 10:02:35;;;;;;;1999.90;999.90;;;;;;;8.58;96.12;101816.22;5027177;28;20226;-74
2022/11/13 10:05:32;;;;;;;1999.90;999.90;;;;;;;8.82;96.12;101815.88;5023292;28;20148;-75
2022/11/13 10:08:27;;;;;;;1999.90;999.90;;;;;;;9.11;95.18;101805.94;5024989;28;20531;-75
2022/11/13 10:11:22;;;;;;;1999.90;999.90;;;;;;;9.28;94.01;101806.28;5021464;28;20168;-75
2022/11/13 10:14:16;;;;;;;1999.90;999.90;;;;;;;9.16;92.56;101801.66;5026646;28;20068;-74
2022/11/13 10:17:07;;;;;;;1999.90;999.90;;;;;;;9.06;92.83;101796.19;5023894;28;20107;-75
2022/11/13 10:19:58;;;;;;;1999.90;999.90;;;;;;;9.13;94.04;101801.59;5022671;28;20084;-75
2022/11/13 10:23:07;;;;;;;1999.90;999.90;;;;;;;9.21;93.31;101791.22;5023041;28;20056;-75
2022/11/13 10:25:51;;;;;;;1999.90;999.90;;;;;;;9.08;93.74;101791.84;5024755;28;20044;-75
2022/11/13 10:28:34;;;;;;;1999.90;999.90;;;;;;;9.04;94.07;101785.63;5020958;28;20041;-74
2022/11/13 10:31:18;;;;;;;1999.90;999.90;;;;;;;9.00;93.91;101773.25;5020476;28;20532;-74
2022/11/13 10:34:03;;;;;;;1999.90;999.90;;;;;;;8.95;93.81;101773.16;5021170;28;20068;-75
2022/11/13 10:37:09;;;;;;;1999.90;999.90;;;;;;;8.91;93.14;101770.44;5027100;28;20048;-75
2022/11/13 10:39:53;;;;;;;1999.90;999.90;;;;;;;8.73;93.95;101765.69;5020895;28;20516;-74
2022/11/13 10:42:40;;;;;;;1999.90;999.90;;;;;;;8.70;94.55;101757.72;5020122;28;20120;-75
2022/11/13 10:45:24;;;;;;;1999.90;999.90;;;;;;;8.71;94.87;101760.38;5021114;28;20048;-75
2022/11/13 10:48:28;;;;;;;1999.90;999.90;;;;;;;8.74;95.50;101764.81;5022689;28;20621;-74
2022/11/13 10:51:26;;;;;;;1999.90;999.90;;;;;;;8.76;95.34;101758.72;5024546;28;20168;-74
2022/11/13 10:54:22;;;;;;;1999.90;999.90;;;;;;;8.70;96.13;101747.19;5028333;28;20099;-75
2022/11/13 10:57:26;;;;;;;1999.90;999.90;;;;;;;8.74;96.31;101747.25;5026324;28;20086;-74
2022/11/13 11:00:29;;;;;;;1999.90;999.90;;;;;;;8.80;96.52;101740.34;5020954;28;20100;-74
2022/11/13 11:03:14;;;;;;;1999.90;999.90;;;;;;;8.88;95.67;101744.03;5023200;28;20048;-75
2022/11/13 11:06:03;;;;;;;1999.90;999.90;;;;;;;8.94;94.98;101737.16;5009886;28;20059;-74
2022/11/13 11:08:47;;;;;;;1999.90;999.90;;;;;;;8.97;95.03;101726.66;5020069;28;20535;-75
2022/11/13 11:14:40;;;;;;;1999.90;999.90;;;;;;;9.25;94.07;101724.56;5023153;28;20121;-75
2022/11/13 11:17:44;;;;;;;1999.90;999.90;;;;;;;9.40;93.75;101726.56;5023026;28;20578;-75
2022/11/13 11:20:46;;;;;;;1999.90;999.90;;;;;;;9.52;93.02;101729.44;5021217;28;20049;-74
2022/11/13 11:23:49;;;;;;;1999.90;999.90;;;;;;;9.70;92.41;101720.97;5023082;28;20055;-75
2022/11/13 11:26:42;;;;;;;1999.90;999.90;;;;;;;9.87;91.87;101713.31;5021319;28;20157;-75
2022/11/13 11:29:41;;;;;;;1999.90;999.90;;;;;;;10.00;91.32;101704.72;5021364;28;20428;-75
2022/11/13 11:32:35;;;;;;;1999.90;999.90;;;;;;;10.05;89.89;101704.78;5022774;28;20102;-75
2022/11/13 11:35:25;;;;;;;1999.90;999.90;;;;;;;10.18;90.61;101703.22;5023085;28;20099;-75
2022/11/13 11:38:20;;;;;;;1999.90;999.90;;;;;;;10.37;89.80;101694.72;5028844;28;20522;-75
2022/11/13 11:41:10;;;;;;;1999.90;999.90;;;;;;;10.48;88.80;101690.47;5020311;28;20052;-75
2022/11/13 11:44:01;;;;;;;1999.90;999.90;;;;;;;10.68;88.23;101687.19;5020439;28;20044;-75
2022/11/13 11:46:45;;;;;;;1999.90;999.90;;;;;;;10.82;87.44;101677.69;5022422;28;20562;-75
2022/11/13 11:49:29;;;;;;;1999.90;999.90;;;;;;;11.02;86.51;101679.66;5019783;28;20065;-75
2022/11/13 11:52:35;;;;;;;1999.90;999.90;;;;;;;11.15;85.37;101676.25;5019638;28;20048;-75
2022/11/13 11:55:41;;;;;;;1999.90;999.90;;;;;;;11.32;84.68;101663.22;5022580;28;20049;-75
2022/11/13 11:58:35;;;;;;;1999.90;999.90;;;;;;;11.44;84.38;101657.13;5023711;28;20187;-75
2022/11/13 12:01:42;;;;;;;1999.90;999.90;;;;;;;11.61;84.11;101656.41;5024269;28;20455;-75
2022/11/13 12:04:38;;;;;;;1999.90;999.90;;;;;;;11.76;83.67;101652.06;5026956;28;20132;-75
2022/11/13 12:07:37;;;;;;;1999.90;999.90;;;;;;;11.91;81.91;101646.03;5027223;28;20096;-75
2022/11/13 12:10:27;;;;;;;1999.90;999.90;;;;;;;12.04;81.79;101634.66;5025296;28;20040;-75
2022/11/13 12:13:11;;;;;;;1999.90;999.90;;;;;;;12.19;82.62;101632.09;5025159;28;20049;-75
2022/11/13 12:16:13;;;;;;;1999.90;999.90;;;;;;;12.35;81.36;101622.47;5034956;28;20068;-75